Time;durP1;ratioP1;P1;durP2;ratioP2;P2;SDS_P1;SDS_P2;PMS_P1;PMS_P2;Temp;Humidity;BMP_temperature;BMP_pressure;BME280_temperature;BME280_humidity;BME280_pressure;Samples;Min_cycle;Max_cycle;Signal;HPM_P1;HPM_P2
2022/04/10 00:02:22;;;;;;;14.88;2.83;;;;;;;;;;5006612;28;20014;-69
2022/04/10 00:04:47;;;;;;;8.88;2.45;;;;;;;;;;5004787;28;20280;-69
2022/04/10 00:07:12;;;;;;;8.75;2.63;;;;;;;;;;5005644;28;20080;-71
2022/04/10 00:09:37;;;;;;;12.85;3.08;;;;;;;;;;4988092;28;20018;-73
2022/04/10 00:12:03;;;;;;;11.73;2.38;;;;;;;;;;5004656;28;20022;-71
2022/04/10 00:14:28;;;;;;;8.57;2.78;;;;;;;;;;5008855;28;20057;-71
2022/04/10 00:16:54;;;;;;;11.15;2.53;;;;;;;;;;5008155;28;20406;-70
2022/04/10 00:19:19;;;;;;;11.30;2.50;;;;;;;;;;5009589;28;20482;-71
2022/04/10 00:21:45;;;;;;;10.80;3.40;;;;;;;;;;5003276;28;20026;-71
2022/04/10 00:24:11;;;;;;;5.40;2.10;;;;;;;;;;5004626;28;20053;-70
2022/04/10 00:26:36;;;;;;;12.07;2.72;;;;;;;;;;5004932;28;20275;-70
2022/04/10 00:29:01;;;;;;;8.27;2.95;;;;;;;;;;5011700;28;20030;-72
2022/04/10 00:31:26;;;;;;;14.40;3.08;;;;;;;;;;5008350;28;20057;-71
2022/04/10 00:33:52;;;;;;;8.13;2.50;;;;;;;;;;5006816;28;20048;-71
2022/04/10 00:36:17;;;;;;;8.68;2.65;;;;;;;;;;5004375;28;20018;-72
2022/04/10 00:38:43;;;;;;;10.68;2.90;;;;;;;;;;5009605;28;20071;-71
2022/04/10 00:41:08;;;;;;;11.27;3.78;;;;;;;;;;5014414;28;20021;-72
2022/04/10 00:43:34;;;;;;;15.48;3.50;;;;;;;;;;5015915;28;20018;-72
2022/04/10 00:46:00;;;;;;;7.32;2.78;;;;;;;;;;5018275;28;20026;-72
2022/04/10 00:48:25;;;;;;;10.13;2.90;;;;;;;;;;5009935;28;20045;-69
2022/04/10 00:53:35;;;;;;;15.88;3.85;;;;;;;;;;5008831;28;20079;-69
2022/04/10 00:56:01;;;;;;;9.50;2.60;;;;;;;;;;5009401;28;20034;-71
2022/04/10 00:58:27;;;;;;;8.30;2.80;;;;;;;;;;5011243;28;20018;-70
2022/04/10 01:00:52;;;;;;;9.13;2.47;;;;;;;;;;5012584;28;20014;-69
2022/04/10 01:03:17;;;;;;;16.52;3.33;;;;;;;;;;5010710;28;20376;-69
2022/04/10 01:05:44;;;;;;;10.90;3.00;;;;;;;;;;5011809;28;20022;-68
2022/04/10 01:08:10;;;;;;;9.80;3.15;;;;;;;;;;5008707;28;20073;-70
2022/04/10 01:10:35;;;;;;;10.88;3.00;;;;;;;;;;5009847;28;20026;-69
2022/04/10 01:13:00;;;;;;;9.07;3.22;;;;;;;;;;5012275;28;20030;-69
2022/04/10 01:15:26;;;;;;;15.93;3.45;;;;;;;;;;5012442;28;20053;-72
2022/04/10 01:17:51;;;;;;;11.15;3.05;;;;;;;;;;5017381;28;20028;-68
2022/04/10 01:20:16;;;;;;;15.18;2.88;;;;;;;;;;5012449;28;20028;-69
2022/04/10 01:22:43;;;;;;;9.48;3.03;;;;;;;;;;5003696;28;20091;-68
2022/04/10 01:25:08;;;;;;;15.77;3.75;;;;;;;;;;5007396;28;20386;-68
2022/04/10 01:27:37;;;;;;;14.50;3.80;;;;;;;;;;5006975;28;20022;-72
2022/04/10 01:30:03;;;;;;;8.07;3.00;;;;;;;;;;5009755;28;20021;-70
2022/04/10 01:32:28;;;;;;;8.73;3.45;;;;;;;;;;5015430;28;20019;-70
2022/04/10 01:34:55;;;;;;;8.23;3.40;;;;;;;;;;5010078;28;20767;-70
2022/04/10 01:37:21;;;;;;;10.00;3.00;;;;;;;;;;5004088;28;19913;-72
2022/04/10 01:39:46;;;;;;;12.73;3.30;;;;;;;;;;5009942;28;20387;-71
2022/04/10 01:42:11;;;;;;;7.70;3.20;;;;;;;;;;5009089;28;20459;-71
2022/04/10 01:44:41;;;;;;;14.00;3.85;;;;;;;;;;5008333;28;20022;-71
2022/04/10 01:47:06;;;;;;;16.42;3.60;;;;;;;;;;5010002;28;20022;-71
2022/04/10 01:49:31;;;;;;;9.40;3.17;;;;;;;;;;5006846;28;20051;-70
2022/04/10 01:51:56;;;;;;;11.05;2.88;;;;;;;;;;5011355;28;20478;-70
2022/04/10 01:54:21;;;;;;;10.10;3.23;;;;;;;;;;5006743;28;20030;-71
2022/04/10 01:56:47;;;;;;;16.07;3.20;;;;;;;;;;5009717;28;20302;-71
2022/04/10 01:59:12;;;;;;;14.32;3.10;;;;;;;;;;5003654;28;20280;-70
2022/04/10 02:01:37;;;;;;;12.90;3.50;;;;;;;;;;5009581;28;20156;-70
2022/04/10 02:04:02;;;;;;;12.13;3.97;;;;;;;;;;5008449;28;20486;-72
2022/04/10 02:06:27;;;;;;;13.23;3.63;;;;;;;;;;5007069;28;20413;-68
2022/04/10 02:08:53;;;;;;;15.93;3.15;;;;;;;;;;5008072;28;20026;-71
2022/04/10 02:11:20;;;;;;;21.92;4.13;;;;;;;;;;5009515;28;20446;-70
2022/04/10 02:13:45;;;;;;;11.93;3.35;;;;;;;;;;5009543;28;20398;-71
2022/04/10 02:16:12;;;;;;;14.88;3.83;;;;;;;;;;5014018;28;20088;-70
2022/04/10 02:18:37;;;;;;;9.82;3.42;;;;;;;;;;5008369;28;20022;-71
2022/04/10 02:21:03;;;;;;;12.50;3.30;;;;;;;;;;5007737;28;20077;-71
2022/04/10 02:23:28;;;;;;;19.98;3.45;;;;;;;;;;4993600;28;20349;-72
2022/04/10 02:25:54;;;;;;;12.60;3.35;;;;;;;;;;5006239;28;20544;-71
2022/04/10 02:28:19;;;;;;;12.90;3.47;;;;;;;;;;5010007;28;20028;-71
2022/04/10 02:30:44;;;;;;;13.77;3.55;;;;;;;;;;5005818;28;20034;-72
2022/04/10 02:33:09;;;;;;;13.70;4.50;;;;;;;;;;5012231;28;20025;-69
2022/04/10 02:35:35;;;;;;;12.32;3.60;;;;;;;;;;5007943;28;20395;-72
2022/04/10 02:38:00;;;;;;;10.13;3.17;;;;;;;;;;5008492;28;20053;-70
2022/04/10 02:40:25;;;;;;;19.85;3.72;;;;;;;;;;5010691;28;20018;-70
2022/04/10 02:42:50;;;;;;;13.15;3.97;;;;;;;;;;5009335;28;20034;-72
2022/04/10 02:45:16;;;;;;;11.18;3.42;;;;;;;;;;5008391;28;20557;-69
2022/04/10 02:47:42;;;;;;;5.97;3.28;;;;;;;;;;5009193;28;20088;-71
2022/04/10 02:50:07;;;;;;;12.82;3.55;;;;;;;;;;5005474;28;20026;-69
2022/04/10 02:52:33;;;;;;;10.27;4.18;;;;;;;;;;5003097;28;20372;-69
2022/04/10 02:54:58;;;;;;;10.35;3.72;;;;;;;;;;5002756;28;20026;-69
2022/04/10 02:57:23;;;;;;;13.10;4.53;;;;;;;;;;5007089;28;20026;-70
2022/04/10 02:59:48;;;;;;;16.60;4.97;;;;;;;;;;5012928;28;20021;-70
2022/04/10 03:02:14;;;;;;;8.85;4.00;;;;;;;;;;5009200;28;20018;-71
2022/04/10 03:04:39;;;;;;;12.90;4.30;;;;;;;;;;5008503;28;20017;-70
2022/04/10 03:07:04;;;;;;;17.42;4.57;;;;;;;;;;5006709;28;20053;-70
2022/04/10 03:09:29;;;;;;;14.52;4.65;;;;;;;;;;5009973;28;20026;-71
2022/04/10 03:11:55;;;;;;;9.73;4.10;;;;;;;;;;5009934;28;20038;-70
2022/04/10 03:14:20;;;;;;;8.52;3.90;;;;;;;;;;5003174;28;20056;-71
2022/04/10 03:16:45;;;;;;;11.80;4.85;;;;;;;;;;5010037;28;20384;-70
2022/04/10 03:19:10;;;;;;;13.82;5.25;;;;;;;;;;5012848;28;20068;-71
2022/04/10 03:21:36;;;;;;;10.48;4.88;;;;;;;;;;5006533;28;20036;-69
2022/04/10 03:24:01;;;;;;;13.07;4.88;;;;;;;;;;5004196;28;20052;-70
2022/04/10 03:26:27;;;;;;;10.25;4.88;;;;;;;;;;5006813;28;20072;-71
2022/04/10 03:28:53;;;;;;;13.38;5.45;;;;;;;;;;5012218;28;20028;-70
2022/04/10 03:31:20;;;;;;;11.23;5.38;;;;;;;;;;5003021;28;20026;-70
2022/04/10 03:33:45;;;;;;;11.88;5.72;;;;;;;;;;5009795;28;20116;-70
2022/04/10 03:36:10;;;;;;;13.20;5.07;;;;;;;;;;5005849;28;20116;-70
2022/04/10 03:38:35;;;;;;;12.07;4.55;;;;;;;;;;5006387;28;20013;-70
2022/04/10 03:41:03;;;;;;;19.67;7.28;;;;;;;;;;5008783;28;20018;-72
2022/04/10 03:43:28;;;;;;;13.18;4.97;;;;;;;;;;4994160;28;20094;-70
2022/04/10 03:45:54;;;;;;;9.60;4.35;;;;;;;;;;5010010;28;20101;-69
2022/04/10 03:48:19;;;;;;;21.10;5.90;;;;;;;;;;5006481;28;20029;-70
2022/04/10 03:50:44;;;;;;;11.98;5.03;;;;;;;;;;5003659;28;20038;-70
2022/04/10 03:53:09;;;;;;;11.20;4.63;;;;;;;;;;5007670;28;20052;-71
2022/04/10 03:55:35;;;;;;;18.73;4.45;;;;;;;;;;5008821;28;20113;-70
2022/04/10 03:58:00;;;;;;;11.80;4.32;;;;;;;;;;5006331;28;20022;-70
2022/04/10 04:00:25;;;;;;;15.75;4.60;;;;;;;;;;5005727;28;20010;-70
2022/04/10 04:02:50;;;;;;;10.23;4.90;;;;;;;;;;5009848;28;20022;-70
2022/04/10 04:05:15;;;;;;;15.02;5.07;;;;;;;;;;5006948;28;20026;-70
2022/04/10 04:07:41;;;;;;;13.13;5.47;;;;;;;;;;5008490;28;20025;-70
2022/04/10 04:10:07;;;;;;;15.30;5.50;;;;;;;;;;5003869;28;20392;-70
2022/04/10 04:12:35;;;;;;;9.80;4.35;;;;;;;;;;5002430;28;20010;-70
2022/04/10 04:15:01;;;;;;;17.17;4.50;;;;;;;;;;5006700;28;20105;-69
2022/04/10 04:17:26;;;;;;;14.00;5.95;;;;;;;;;;5007713;28;20109;-69
2022/04/10 04:19:51;;;;;;;14.10;4.18;;;;;;;;;;5008921;28;20017;-70
2022/04/10 04:22:17;;;;;;;10.07;5.45;;;;;;;;;;5009398;28;20093;-69
2022/04/10 04:24:42;;;;;;;11.93;4.43;;;;;;;;;;5009583;28;20030;-70
2022/04/10 04:27:07;;;;;;;18.33;4.60;;;;;;;;;;5011949;28;20024;-70
2022/04/10 04:29:32;;;;;;;9.52;4.25;;;;;;;;;;5006333;28;20556;-70
2022/04/10 04:31:58;;;;;;;14.63;4.75;;;;;;;;;;5006708;28;20018;-70
2022/04/10 04:34:23;;;;;;;12.07;4.28;;;;;;;;;;5010544;28;20379;-70
2022/04/10 04:36:48;;;;;;;12.23;4.68;;;;;;;;;;5009583;28;20030;-70
2022/04/10 04:39:14;;;;;;;13.68;4.82;;;;;;;;;;5007763;28;20419;-69
2022/04/10 04:41:39;;;;;;;11.20;4.53;;;;;;;;;;5013975;28;20107;-70
2022/04/10 04:44:04;;;;;;;8.48;4.47;;;;;;;;;;5005232;28;20049;-68
2022/04/10 04:46:30;;;;;;;22.10;5.25;;;;;;;;;;5008861;28;20493;-70
2022/04/10 04:48:55;;;;;;;10.02;4.60;;;;;;;;;;5008811;28;20014;-70
2022/04/10 04:51:20;;;;;;;17.08;5.20;;;;;;;;;;5008133;28;20099;-69
2022/04/10 04:53:45;;;;;;;12.07;4.63;;;;;;;;;;5012994;28;20026;-70
2022/04/10 04:56:10;;;;;;;11.02;4.55;;;;;;;;;;5005759;28;20490;-70
2022/04/10 04:58:36;;;;;;;18.50;4.80;;;;;;;;;;5010074;28;20397;-70
2022/04/10 05:01:01;;;;;;;11.05;4.93;;;;;;;;;;5008284;28;20025;-69
2022/04/10 05:03:26;;;;;;;14.27;4.72;;;;;;;;;;5013296;28;20049;-70
2022/04/10 05:05:51;;;;;;;12.43;4.63;;;;;;;;;;5012031;28;20467;-70
2022/04/10 05:08:19;;;;;;;15.32;4.72;;;;;;;;;;5010106;28;20025;-70
2022/04/10 05:10:44;;;;;;;17.35;5.03;;;;;;;;;;5010866;28;20021;-70
2022/04/10 05:13:09;;;;;;;17.45;5.13;;;;;;;;;;5007328;28;20034;-70
2022/04/10 05:15:35;;;;;;;12.60;5.72;;;;;;;;;;5009173;28;20088;-69
2022/04/10 05:18:00;;;;;;;13.13;4.50;;;;;;;;;;5010796;28;20026;-68
2022/04/10 05:20:25;;;;;;;16.92;5.47;;;;;;;;;;5009015;28;20010;-70
2022/04/10 05:22:50;;;;;;;12.50;4.97;;;;;;;;;;5015314;28;20014;-68
2022/04/10 05:25:15;;;;;;;14.55;5.07;;;;;;;;;;5012494;28;20383;-68
2022/04/10 05:27:41;;;;;;;15.77;5.85;;;;;;;;;;5009142;28;20029;-67
2022/04/10 05:30:06;;;;;;;16.67;5.22;;;;;;;;;;5007495;28;20064;-68
2022/04/10 05:32:31;;;;;;;16.05;5.25;;;;;;;;;;5011377;28;20364;-69
2022/04/10 05:34:57;;;;;;;16.85;5.97;;;;;;;;;;5002707;28;20463;-67
2022/04/10 05:37:22;;;;;;;20.80;5.88;;;;;;;;;;5006585;28;20018;-68
2022/04/10 05:39:47;;;;;;;14.98;5.90;;;;;;;;;;5008384;28;20785;-68
2022/04/10 05:42:12;;;;;;;17.40;6.28;;;;;;;;;;5009636;28;20037;-68
2022/04/10 05:44:37;;;;;;;20.58;6.15;;;;;;;;;;5006176;28;20086;-68
2022/04/10 05:47:03;;;;;;;19.50;5.25;;;;;;;;;;5002450;28;20028;-68
2022/04/10 05:49:28;;;;;;;16.13;5.63;;;;;;;;;;5007879;28;20037;-67
2022/04/10 05:51:53;;;;;;;19.02;6.38;;;;;;;;;;5007284;28;20425;-68
2022/04/10 05:54:18;;;;;;;19.50;5.93;;;;;;;;;;5009553;28;20084;-68
2022/04/10 05:56:44;;;;;;;14.80;6.35;;;;;;;;;;5001870;28;20038;-68
2022/04/10 05:59:09;;;;;;;21.48;6.47;;;;;;;;;;5008154;28;20022;-68
2022/04/10 06:01:34;;;;;;;15.32;5.43;;;;;;;;;;5005729;28;20022;-71
2022/04/10 06:03:59;;;;;;;11.57;4.93;;;;;;;;;;5002640;28;20096;-68
2022/04/10 06:06:25;;;;;;;17.75;5.97;;;;;;;;;;5006331;28;20038;-69
2022/04/10 06:08:50;;;;;;;15.60;6.38;;;;;;;;;;5006623;28;20026;-67
2022/04/10 06:11:15;;;;;;;14.60;5.50;;;;;;;;;;5007486;28;20030;-70
2022/04/10 06:13:40;;;;;;;17.95;6.40;;;;;;;;;;5002559;28;20027;-67
2022/04/10 06:16:05;;;;;;;14.68;6.32;;;;;;;;;;5007720;28;20116;-68
2022/04/10 06:18:31;;;;;;;14.30;6.07;;;;;;;;;;5006391;28;20117;-68
2022/04/10 06:20:56;;;;;;;16.05;6.25;;;;;;;;;;5008272;28;20025;-68
2022/04/10 06:23:23;;;;;;;14.55;6.57;;;;;;;;;;5016319;28;20025;-69
2022/04/10 06:25:48;;;;;;;12.35;6.68;;;;;;;;;;5008999;28;20061;-67
2022/04/10 06:28:13;;;;;;;20.08;6.78;;;;;;;;;;5007127;28;20053;-68
2022/04/10 06:30:38;;;;;;;14.43;7.00;;;;;;;;;;4991954;28;20026;-70
2022/04/10 06:33:04;;;;;;;12.60;5.90;;;;;;;;;;5007742;28;20378;-69
2022/04/10 06:35:29;;;;;;;13.38;5.93;;;;;;;;;;5009904;28;20660;-68
2022/04/10 06:37:54;;;;;;;15.48;6.18;;;;;;;;;;5007868;28;20787;-71
2022/04/10 06:40:19;;;;;;;20.08;6.32;;;;;;;;;;5010977;28;20021;-68
2022/04/10 06:42:44;;;;;;;16.08;5.93;;;;;;;;;;5009490;28;20060;-69
2022/04/10 06:45:10;;;;;;;15.60;6.97;;;;;;;;;;5007490;28;20030;-69
2022/04/10 06:47:35;;;;;;;19.60;6.78;;;;;;;;;;5001730;28;20076;-70
2022/04/10 06:50:00;;;;;;;15.70;5.75;;;;;;;;;;5008912;28;20105;-69
2022/04/10 06:52:25;;;;;;;18.23;5.60;;;;;;;;;;5008313;28;20076;-69
2022/04/10 06:54:50;;;;;;;19.67;6.35;;;;;;;;;;5008803;28;20026;-70
2022/04/10 06:57:16;;;;;;;15.83;6.77;;;;;;;;;;4999333;28;20048;-69
2022/04/10 06:59:41;;;;;;;12.18;5.95;;;;;;;;;;5002632;28;20276;-71
2022/04/10 07:02:06;;;;;;;12.10;5.20;;;;;;;;;;5007542;28;20037;-70
2022/04/10 07:04:31;;;;;;;16.38;6.28;;;;;;;;;;5003668;28;20264;-70
2022/04/10 07:06:56;;;;;;;16.02;6.07;;;;;;;;;;5008582;28;20013;-70
2022/04/10 07:09:22;;;;;;;12.23;5.55;;;;;;;;;;5002303;28;20119;-71
2022/04/10 07:11:47;;;;;;;15.90;6.37;;;;;;;;;;4996344;28;20037;-71
2022/04/10 07:14:12;;;;;;;15.57;6.82;;;;;;;;;;5007270;28;20639;-70
2022/04/10 07:16:37;;;;;;;12.00;6.75;;;;;;;;;;5002644;28;20646;-71
2022/04/10 07:19:02;;;;;;;16.83;7.07;;;;;;;;;;4993980;28;20033;-72
2022/04/10 07:24:12;;;;;;;14.05;6.78;;;;;;;;;;5004750;28;20643;-70
2022/04/10 07:26:37;;;;;;;17.80;6.85;;;;;;;;;;5009122;28;20053;-70
2022/04/10 07:29:03;;;;;;;15.23;6.53;;;;;;;;;;5004191;28;20100;-71
2022/04/10 07:31:28;;;;;;;14.73;5.80;;;;;;;;;;5008053;28;20281;-72
2022/04/10 07:33:53;;;;;;;12.20;6.37;;;;;;;;;;5004239;28;20041;-70
2022/04/10 07:36:18;;;;;;;12.77;4.63;;;;;;;;;;5004940;28;20291;-71
2022/04/10 07:38:44;;;;;;;12.07;4.50;;;;;;;;;;5007639;28;20439;-70
2022/04/10 07:41:09;;;;;;;11.15;4.57;;;;;;;;;;5009740;28;20025;-70
2022/04/10 07:43:34;;;;;;;12.43;4.47;;;;;;;;;;4993717;28;20030;-71
2022/04/10 07:48:43;;;;;;;14.02;4.75;;;;;;;;;;5007074;28;20299;-70
2022/04/10 07:51:08;;;;;;;11.75;4.60;;;;;;;;;;5008334;28;20021;-70
2022/04/10 07:53:34;;;;;;;15.80;4.93;;;;;;;;;;5004667;28;20026;-70
2022/04/10 07:55:59;;;;;;;11.43;5.07;;;;;;;;;;5001275;28;20114;-70
2022/04/10 07:58:24;;;;;;;19.55;6.57;;;;;;;;;;5012486;28;20033;-70
2022/04/10 08:00:50;;;;;;;12.00;4.80;;;;;;;;;;5006650;28;20025;-70
2022/04/10 08:03:15;;;;;;;13.73;5.25;;;;;;;;;;5014328;28;20268;-72
2022/04/10 08:05:40;;;;;;;8.25;4.43;;;;;;;;;;5010718;28;20392;-69
2022/04/10 08:08:06;;;;;;;19.98;6.03;;;;;;;;;;4999861;28;20021;-70
2022/04/10 08:10:31;;;;;;;10.45;5.10;;;;;;;;;;5006841;28;20113;-69
2022/04/10 08:12:58;;;;;;;17.25;5.60;;;;;;;;;;4999319;28;20129;-71
2022/04/10 08:15:23;;;;;;;16.23;5.38;;;;;;;;;;5009045;28;20597;-69
2022/04/10 08:17:48;;;;;;;18.90;5.43;;;;;;;;;;5006287;28;20117;-71
2022/04/10 08:20:16;;;;;;;14.35;5.38;;;;;;;;;;5006564;28;20307;-71
2022/04/10 08:22:41;;;;;;;17.08;5.15;;;;;;;;;;5007822;28;20049;-69
2022/04/10 08:25:08;;;;;;;10.23;5.43;;;;;;;;;;5008352;28;20513;-70
2022/04/10 08:27:33;;;;;;;10.20;4.90;;;;;;;;;;5009343;28;20058;-71
2022/04/10 08:29:58;;;;;;;9.45;4.40;;;;;;;;;;4998812;28;20053;-70
2022/04/10 08:32:24;;;;;;;12.20;4.57;;;;;;;;;;5002060;28;20030;-70
2022/04/10 08:34:50;;;;;;;17.60;6.05;;;;;;;;;;5006036;28;20041;-70
2022/04/10 08:37:15;;;;;;;21.75;6.38;;;;;;;;;;5006310;28;20049;-70
2022/04/10 08:39:40;;;;;;;12.73;5.43;;;;;;;;;;5010140;28;20434;-70
2022/04/10 08:42:06;;;;;;;12.27;3.97;;;;;;;;;;5011184;28;20778;-70
2022/04/10 08:44:32;;;;;;;10.60;4.72;;;;;;;;;;5009343;28;20465;-69
2022/04/10 08:46:57;;;;;;;15.35;4.78;;;;;;;;;;5010898;28;20026;-70
2022/04/10 08:49:26;;;;;;;14.25;5.00;;;;;;;;;;5008556;28;20032;-70
2022/04/10 08:51:52;;;;;;;14.63;4.75;;;;;;;;;;5007252;28;20027;-72
2022/04/10 08:54:18;;;;;;;11.80;3.25;;;;;;;;;;5001854;28;20529;-70
2022/04/10 08:56:44;;;;;;;10.77;3.28;;;;;;;;;;5011676;28;20030;-70
2022/04/10 08:59:09;;;;;;;16.52;4.53;;;;;;;;;;5007172;28;20028;-70
2022/04/10 09:01:34;;;;;;;15.87;5.00;;;;;;;;;;5000013;28;20061;-71
2022/04/10 09:03:59;;;;;;;10.83;2.80;;;;;;;;;;5004715;28;20352;-72
2022/04/10 09:06:25;;;;;;;15.18;3.80;;;;;;;;;;5001425;28;20952;-69
2022/04/10 09:08:50;;;;;;;9.63;3.35;;;;;;;;;;5007141;28;20463;-73
2022/04/10 09:11:15;;;;;;;12.90;3.60;;;;;;;;;;5004717;28;20062;-69
2022/04/10 09:13:41;;;;;;;13.32;3.53;;;;;;;;;;5007119;28;20032;-69
2022/04/10 09:16:11;;;;;;;9.90;3.47;;;;;;;;;;5008977;28;20033;-69
2022/04/10 09:18:55;;;;;;;13.27;3.60;;;;;;;;;;4988410;28;20050;-72
2022/04/10 09:21:23;;;;;;;6.97;3.30;;;;;;;;;;5009195;28;20025;-70
2022/04/10 09:23:56;;;;;;;10.40;3.30;;;;;;;;;;5007788;28;20103;-70
2022/04/10 09:26:21;;;;;;;16.15;3.75;;;;;;;;;;5001226;28;20034;-70
2022/04/10 09:28:50;;;;;;;10.90;4.65;;;;;;;;;;5017049;28;20603;-72
2022/04/10 09:31:28;;;;;;;10.60;4.88;;;;;;;;;;5008856;28;20033;-69
2022/04/10 09:33:54;;;;;;;12.45;4.25;;;;;;;;;;5016028;28;20032;-69
2022/04/10 09:36:32;;;;;;;16.35;4.35;;;;;;;;;;5001396;28;20030;-71
2022/04/10 09:38:58;;;;;;;8.82;2.17;;;;;;;;;;5001900;28;20018;-73
2022/04/10 09:41:23;;;;;;;11.30;3.28;;;;;;;;;;5016028;28;20116;-70
2022/04/10 09:43:48;;;;;;;11.48;3.13;;;;;;;;;;5014463;28;20022;-71
2022/04/10 09:46:14;;;;;;;6.32;2.53;;;;;;;;;;5004668;28;20045;-69
2022/04/10 09:48:39;;;;;;;7.70;2.80;;;;;;;;;;5008532;28;20026;-70
2022/04/10 09:51:04;;;;;;;16.92;2.55;;;;;;;;;;5002290;28;20025;-69
2022/04/10 09:53:31;;;;;;;7.82;2.78;;;;;;;;;;5010135;28;20545;-71
2022/04/10 09:55:58;;;;;;;6.10;2.00;;;;;;;;;;5006228;28;20026;-70
2022/04/10 09:58:24;;;;;;;9.38;2.65;;;;;;;;;;5005102;28;20049;-73
2022/04/10 10:00:50;;;;;;;11.00;3.70;;;;;;;;;;5008843;28;20022;-71
2022/04/10 10:03:16;;;;;;;8.60;2.35;;;;;;;;;;5006607;28;20034;-70
2022/04/10 10:05:42;;;;;;;7.47;2.28;;;;;;;;;;5009196;28;20550;-72
2022/04/10 10:08:08;;;;;;;14.07;2.40;;;;;;;;;;5009458;28;20085;-71
2022/04/10 10:10:34;;;;;;;10.27;2.00;;;;;;;;;;5007858;28;20226;-72
2022/04/10 10:13:01;;;;;;;4.82;2.30;;;;;;;;;;4996391;28;20093;-69
2022/04/10 10:15:27;;;;;;;10.95;2.28;;;;;;;;;;5009725;28;20037;-72
2022/04/10 10:17:52;;;;;;;7.50;2.13;;;;;;;;;;5008551;28;20080;-71
2022/04/10 10:20:19;;;;;;;6.85;2.08;;;;;;;;;;5005678;28;20087;-70
2022/04/10 10:22:44;;;;;;;10.93;2.38;;;;;;;;;;5014067;28;20041;-70
2022/04/10 10:25:12;;;;;;;14.20;2.42;;;;;;;;;;5011746;28;20034;-69
2022/04/10 10:27:55;;;;;;;13.10;2.50;;;;;;;;;;5007426;28;20442;-69
2022/04/10 10:30:20;;;;;;;8.27;1.95;;;;;;;;;;5003622;28;20021;-69
2022/04/10 10:32:52;;;;;;;9.18;1.95;;;;;;;;;;5007320;28;20332;-69
2022/04/10 10:35:36;;;;;;;5.78;1.73;;;;;;;;;;5009535;28;20026;-70
2022/04/10 10:38:02;;;;;;;7.53;1.65;;;;;;;;;;5005080;28;20021;-69
2022/04/10 10:40:27;;;;;;;4.20;1.35;;;;;;;;;;5005151;28;20022;-71
2022/04/10 10:42:55;;;;;;;6.93;1.60;;;;;;;;;;5006804;28;20021;-70
2022/04/10 10:45:36;;;;;;;5.65;1.73;;;;;;;;;;5003290;28;20492;-69
2022/04/10 10:48:20;;;;;;;4.38;1.40;;;;;;;;;;5004206;28;20065;-69
2022/04/10 10:50:45;;;;;;;8.18;2.10;;;;;;;;;;5006484;28;20066;-69
2022/04/10 10:53:11;;;;;;;3.80;1.58;;;;;;;;;;5008155;28;20068;-72
2022/04/10 10:55:49;;;;;;;7.03;1.80;;;;;;;;;;5010041;28;20048;-71
2022/04/10 10:58:15;;;;;;;9.82;2.38;;;;;;;;;;5010016;28;22809;-71
2022/04/10 11:00:43;;;;;;;7.93;2.70;;;;;;;;;;5014591;28;20025;-71
2022/04/10 11:03:09;;;;;;;6.43;2.05;;;;;;;;;;5010673;28;20037;-71
2022/04/10 11:05:39;;;;;;;5.55;1.85;;;;;;;;;;5009525;28;20522;-70
2022/04/10 11:08:05;;;;;;;11.27;2.10;;;;;;;;;;5012953;28;20017;-70
2022/04/10 11:10:31;;;;;;;7.25;1.90;;;;;;;;;;5009035;28;20022;-70
2022/04/10 11:13:01;;;;;;;9.35;1.80;;;;;;;;;;5004400;28;20541;-71
2022/04/10 11:15:31;;;;;;;12.63;2.45;;;;;;;;;;5009937;28;20678;-70
2022/04/10 11:20:24;;;;;;;10.73;1.92;;;;;;;;;;5009554;28;20543;-66
2022/04/10 11:22:52;;;;;;;3.78;1.52;;;;;;;;;;5019337;28;20022;-67
2022/04/10 11:25:18;;;;;;;7.00;2.15;;;;;;;;;;5008610;28;20052;-68
2022/04/10 11:27:48;;;;;;;4.57;1.67;;;;;;;;;;5009083;28;20013;-70
2022/04/10 11:30:15;;;;;;;4.97;1.70;;;;;;;;;;4987468;28;20062;-67
2022/04/10 11:33:03;;;;;;;8.80;1.80;;;;;;;;;;4986477;28;20072;-67
2022/04/10 11:35:32;;;;;;;4.70;1.67;;;;;;;;;;4983054;28;20038;-67
2022/04/10 11:37:58;;;;;;;6.85;2.13;;;;;;;;;;4996268;28;20622;-68
2022/04/10 11:40:24;;;;;;;8.75;1.75;;;;;;;;;;4994856;28;20491;-69
2022/04/10 11:42:51;;;;;;;4.82;1.55;;;;;;;;;;5000145;28;20091;-70
2022/04/10 11:45:17;;;;;;;9.57;2.20;;;;;;;;;;4987692;28;20021;-68
2022/04/10 11:47:42;;;;;;;4.45;1.70;;;;;;;;;;4991618;28;20031;-69
2022/04/10 11:50:08;;;;;;;7.65;2.05;;;;;;;;;;4992538;28;20114;-69
2022/04/10 11:52:34;;;;;;;6.15;1.75;;;;;;;;;;4989676;28;20051;-70
2022/04/10 11:54:59;;;;;;;4.00;1.50;;;;;;;;;;4989631;28;20428;-69
2022/04/10 11:57:24;;;;;;;6.38;1.67;;;;;;;;;;4984926;28;20069;-69
2022/04/10 11:59:50;;;;;;;5.35;1.40;;;;;;;;;;4986913;28;20026;-70
2022/04/10 12:02:16;;;;;;;4.07;1.60;;;;;;;;;;4987608;28;20026;-69
2022/04/10 12:04:42;;;;;;;4.55;2.17;;;;;;;;;;4970437;28;20029;-69
2022/04/10 12:07:13;;;;;;;7.57;2.75;;;;;;;;;;4989588;28;20030;-68
2022/04/10 12:09:39;;;;;;;7.95;1.90;;;;;;;;;;4995832;28;20018;-70
2022/04/10 12:12:05;;;;;;;5.85;1.92;;;;;;;;;;4992990;28;20356;-69
2022/04/10 12:14:30;;;;;;;4.03;1.60;;;;;;;;;;4969402;28;20043;-69
2022/04/10 12:16:55;;;;;;;5.07;1.20;;;;;;;;;;4988408;28;20022;-69
2022/04/10 12:19:30;;;;;;;4.57;1.70;;;;;;;;;;4991345;28;20753;-69
2022/04/10 12:21:55;;;;;;;6.65;2.08;;;;;;;;;;4986641;28;20308;-69
2022/04/10 12:24:20;;;;;;;7.15;2.33;;;;;;;;;;4994015;28;20054;-70
2022/04/10 12:26:46;;;;;;;7.82;2.58;;;;;;;;;;4987873;28;20022;-69
2022/04/10 12:29:12;;;;;;;7.68;1.83;;;;;;;;;;4988360;28;20388;-69
2022/04/10 12:31:37;;;;;;;2.88;1.70;;;;;;;;;;4987676;28;20018;-70
2022/04/10 12:34:03;;;;;;;9.40;1.95;;;;;;;;;;4986109;28;20107;-69
2022/04/10 12:36:28;;;;;;;3.15;1.60;;;;;;;;;;4989279;28;20075;-69
2022/04/10 12:38:54;;;;;;;6.85;1.92;;;;;;;;;;4985619;28;20087;-70
2022/04/10 12:41:26;;;;;;;5.13;1.80;;;;;;;;;;4987895;28;20104;-70
2022/04/10 12:43:58;;;;;;;5.32;1.95;;;;;;;;;;4990241;28;20430;-69
2022/04/10 12:46:31;;;;;;;3.60;1.83;;;;;;;;;;4989737;28;20089;-70
2022/04/10 12:49:10;;;;;;;5.97;1.90;;;;;;;;;;4987472;28;20031;-70
2022/04/10 12:51:35;;;;;;;8.27;1.80;;;;;;;;;;4988342;28;20475;-70
2022/04/10 12:54:00;;;;;;;6.57;1.87;;;;;;;;;;4986850;28;20165;-70
2022/04/10 12:56:25;;;;;;;8.00;2.23;;;;;;;;;;4993104;28;20285;-70
2022/04/10 12:58:51;;;;;;;3.67;1.45;;;;;;;;;;4994811;28;20917;-70
2022/04/10 13:01:23;;;;;;;11.20;2.10;;;;;;;;;;4990187;28;20403;-69
2022/04/10 13:03:48;;;;;;;7.88;1.55;;;;;;;;;;4992352;28;20045;-72
2022/04/10 13:06:15;;;;;;;4.93;2.30;;;;;;;;;;4991388;28;20483;-70
2022/04/10 13:08:41;;;;;;;8.55;2.83;;;;;;;;;;4990660;28;20371;-70
2022/04/10 13:11:07;;;;;;;6.65;1.70;;;;;;;;;;4991963;28;20088;-70
2022/04/10 13:14:13;;;;;;;5.07;2.05;;;;;;;;;;4992390;28;20081;-71
2022/04/10 13:16:39;;;;;;;8.02;1.70;;;;;;;;;;4888460;29;20063;-70
2022/04/10 13:19:05;;;;;;;5.35;1.48;;;;;;;;;;4888136;29;20064;-69
2022/04/10 13:21:32;;;;;;;3.05;1.30;;;;;;;;;;4940463;28;20039;-69
2022/04/10 13:23:57;;;;;;;6.25;1.85;;;;;;;;;;4994907;28;20052;-70
2022/04/10 13:26:27;;;;;;;5.93;1.40;;;;;;;;;;4992960;28;20104;-69
2022/04/10 13:28:52;;;;;;;5.27;1.63;;;;;;;;;;4992365;28;20386;-69
2022/04/10 13:31:17;;;;;;;2.97;1.23;;;;;;;;;;4990685;28;20022;-70
2022/04/10 13:33:42;;;;;;;11.02;3.17;;;;;;;;;;4991189;28;20266;-70
2022/04/10 13:36:08;;;;;;;5.93;2.53;;;;;;;;;;4975035;28;20030;-70
2022/04/10 13:38:33;;;;;;;24.17;9.18;;;;;;;;;;4990204;28;20019;-70
2022/04/10 13:40:58;;;;;;;9.30;2.97;;;;;;;;;;4990288;28;20501;-70
2022/04/10 13:43:24;;;;;;;9.13;3.27;;;;;;;;;;4991938;28;20280;-70
2022/04/10 13:45:49;;;;;;;6.28;2.72;;;;;;;;;;4974584;28;20285;-70
2022/04/10 13:48:14;;;;;;;11.43;1.70;;;;;;;;;;4992503;28;20027;-70
2022/04/10 13:50:39;;;;;;;8.57;1.80;;;;;;;;;;4991438;28;20820;-69
2022/04/10 13:53:04;;;;;;;10.50;1.47;;;;;;;;;;4991343;28;20283;-69
2022/04/10 13:55:30;;;;;;;6.05;1.52;;;;;;;;;;4998435;28;20295;-69
2022/04/10 13:57:55;;;;;;;4.40;1.10;;;;;;;;;;4994358;28;20018;-69
2022/04/10 14:00:20;;;;;;;2.63;0.77;;;;;;;;;;4991149;28;20026;-69
2022/04/10 14:02:45;;;;;;;3.45;1.00;;;;;;;;;;4991568;28;20293;-69
2022/04/10 14:05:10;;;;;;;1.93;1.00;;;;;;;;;;4991550;28;20101;-69
2022/04/10 14:07:35;;;;;;;4.43;1.20;;;;;;;;;;4986929;28;20285;-69
2022/04/10 14:10:01;;;;;;;5.05;1.45;;;;;;;;;;4988929;28;21778;-69
2022/04/10 14:12:28;;;;;;;10.23;1.70;;;;;;;;;;4991823;28;20475;-70
2022/04/10 14:14:53;;;;;;;4.57;1.73;;;;;;;;;;4992824;28;20026;-69
2022/04/10 14:17:18;;;;;;;6.70;1.60;;;;;;;;;;4992303;28;20092;-70
2022/04/10 14:19:44;;;;;;;8.05;2.10;;;;;;;;;;4991000;28;20088;-70
2022/04/10 14:22:09;;;;;;;2.95;1.50;;;;;;;;;;4990919;28;20015;-69
2022/04/10 14:24:35;;;;;;;4.53;1.50;;;;;;;;;;4990962;28;20026;-70
2022/04/10 14:27:00;;;;;;;9.52;1.55;;;;;;;;;;4991939;28;20273;-69
2022/04/10 14:29:25;;;;;;;3.40;1.35;;;;;;;;;;4987443;28;20041;-70
2022/04/10 14:31:51;;;;;;;6.03;1.70;;;;;;;;;;4988144;28;21064;-70
2022/04/10 14:34:17;;;;;;;7.20;2.08;;;;;;;;;;4985902;28;20028;-69
2022/04/10 14:36:42;;;;;;;3.67;1.30;;;;;;;;;;4979391;28;20387;-69
2022/04/10 14:39:08;;;;;;;6.85;1.23;;;;;;;;;;4983275;28;20018;-70
2022/04/10 14:41:33;;;;;;;8.30;1.50;;;;;;;;;;4990555;28;20033;-70